createdAt,value
2022-10-29T00:00:08.195Z,72.53
2022-10-29T00:05:08.024Z,72.55
2022-10-29T00:10:07.737Z,72.56
2022-10-29T00:15:08.451Z,72.56
2022-10-29T00:25:07.843Z,72.59
2022-10-29T00:30:08.561Z,72.58
2022-10-29T00:35:08.301Z,72.58
2022-10-29T00:40:08.015Z,72.6
2022-10-29T00:45:07.718Z,72.59
2022-10-29T00:50:08.453Z,72.6
2022-10-29T00:55:08.174Z,72.61
2022-10-29T01:00:07.897Z,72.62
2022-10-29T01:05:08.575Z,72.63
2022-10-29T01:10:08.286Z,72.64
2022-10-29T01:15:08.007Z,72.63
2022-10-29T01:20:07.753Z,72.65
2022-10-29T01:25:08.484Z,72.66
2022-10-29T01:30:08.178Z,72.65
2022-10-29T01:35:07.880Z,72.68
2022-10-29T01:40:08.576Z,72.67
2022-10-29T01:45:08.293Z,72.69
2022-10-29T01:50:08.042Z,72.7
2022-10-29T01:55:07.720Z,72.71
2022-10-29T02:00:10.935Z,72.72
2022-10-29T02:05:08.616Z,72.73
2022-10-29T02:10:08.347Z,72.75
2022-10-29T02:15:08.046Z,72.75
2022-10-29T02:20:07.747Z,72.76
2022-10-29T02:25:08.552Z,72.75
2022-10-29T02:30:08.285Z,72.77
2022-10-29T02:35:08.003Z,72.77
2022-10-29T02:40:07.749Z,72.77
2022-10-29T02:45:09.220Z,72.77
2022-10-29T02:50:07.899Z,72.77
2022-10-29T02:55:08.640Z,72.77
2022-10-29T03:00:08.346Z,72.8
2022-10-29T03:05:08.024Z,72.77
2022-10-29T03:10:07.705Z,72.78
2022-10-29T03:15:08.425Z,72.8
2022-10-29T03:20:08.143Z,72.79
2022-10-29T03:25:07.877Z,72.8
2022-10-29T03:30:08.606Z,72.81
2022-10-29T03:35:08.322Z,72.81
2022-10-29T03:40:08.063Z,72.83
2022-10-29T03:45:07.753Z,72.83
2022-10-29T03:50:08.470Z,72.84
2022-10-29T03:55:08.162Z,72.85
2022-10-29T04:00:07.856Z,72.86
2022-10-29T04:05:02.616Z,72.85
2022-10-29T04:10:02.457Z,72.86
2022-10-29T04:15:02.271Z,72.87
2022-10-29T04:20:02.058Z,72.91
2022-10-29T04:30:02.611Z,72.88
2022-10-29T04:35:02.496Z,72.91
2022-10-29T04:40:02.311Z,72.92
2022-10-29T04:45:02.068Z,72.92
2022-10-29T04:50:01.903Z,72.93
2022-10-29T04:55:03.030Z,72.93
2022-10-29T05:00:02.048Z,72.95
2022-10-29T05:05:01.850Z,72.96
2022-10-29T05:10:02.663Z,72.96
2022-10-29T05:15:02.458Z,72.99
2022-10-29T05:20:02.284Z,72.98
2022-10-29T05:25:01.986Z,72.97
2022-10-29T05:30:01.735Z,73.0
2022-10-29T05:35:02.449Z,72.98
2022-10-29T05:40:02.316Z,72.98
2022-10-29T05:45:02.291Z,72.99
2022-10-29T05:50:02.197Z,73.01
2022-10-29T05:55:02.100Z,73.01
2022-10-29T06:00:02.062Z,73.0
2022-10-29T06:05:01.851Z,72.99
2022-10-29T06:10:02.602Z,72.98
2022-10-29T06:15:02.560Z,73.02
2022-10-29T06:20:02.403Z,73.02
2022-10-29T06:25:02.208Z,73.02
2022-10-29T06:30:02.014Z,73.04
2022-10-29T06:35:01.739Z,73.01
2022-10-29T06:40:02.520Z,73.03
2022-10-29T06:45:02.434Z,73.03
2022-10-29T06:50:02.240Z,73.04
2022-10-29T06:55:01.975Z,73.04
2022-10-29T07:00:05.659Z,73.03
2022-10-29T07:05:02.405Z,73.04
2022-10-29T07:10:02.201Z,73.03
2022-10-29T07:15:01.888Z,73.02
2022-10-29T07:20:02.668Z,73.04
2022-10-29T07:25:02.496Z,73.01
2022-10-29T07:30:02.361Z,73.05
2022-10-29T07:35:02.149Z,73.05
2022-10-29T07:40:01.976Z,73.03
2022-10-29T07:45:01.702Z,73.01
2022-10-29T07:50:02.445Z,72.98
2022-10-29T07:55:02.296Z,72.97
2022-10-29T08:00:02.117Z,72.94
2022-10-29T08:05:01.865Z,72.93
2022-10-29T08:10:02.599Z,72.91
2022-10-29T08:15:02.412Z,72.91
2022-10-29T08:20:02.249Z,72.9
2022-10-29T08:25:02.170Z,72.9
2022-10-29T08:30:02.122Z,72.88
2022-10-29T08:35:02.054Z,72.86
2022-10-29T08:40:01.975Z,72.81
2022-10-29T08:45:01.921Z,72.79
2022-10-29T08:50:02.884Z,72.75
2022-10-29T08:55:02.805Z,72.73
2022-10-29T09:00:02.700Z,72.69
2022-10-29T09:05:02.552Z,72.63
2022-10-29T09:10:02.397Z,72.6
2022-10-29T09:15:02.201Z,72.56
2022-10-29T09:20:02.025Z,72.51
2022-10-29T09:25:01.746Z,72.44
2022-10-29T09:30:02.555Z,72.42
2022-10-29T09:35:02.335Z,72.41
2022-10-29T09:40:02.095Z,72.33
2022-10-29T09:45:01.871Z,72.28
2022-10-29T09:50:07.177Z,72.26
2022-10-29T09:55:02.538Z,72.18
2022-10-29T10:00:02.362Z,72.18
2022-10-29T10:05:02.154Z,72.14
2022-10-29T10:10:01.947Z,72.07
2022-10-29T10:15:01.785Z,72.05
2022-10-29T10:20:02.548Z,71.99
2022-10-29T10:25:02.368Z,71.96
2022-10-29T10:30:02.219Z,71.93
2022-10-29T10:35:02.019Z,71.88
2022-10-29T10:40:01.842Z,71.84
2022-10-29T10:45:02.706Z,71.8
2022-10-29T10:50:02.439Z,71.74
2022-10-29T10:55:02.249Z,71.69
2022-10-29T11:00:01.978Z,71.66
2022-10-29T11:05:05.167Z,71.63
2022-10-29T11:10:02.569Z,71.6
2022-10-29T11:15:02.476Z,71.55
2022-10-29T11:20:02.368Z,71.53
2022-10-29T11:25:02.257Z,71.43
2022-10-29T11:30:02.172Z,71.42
2022-10-29T11:35:03.994Z,71.38
2022-10-29T11:40:02.050Z,71.33
2022-10-29T11:45:01.893Z,71.25
2022-10-29T11:50:02.637Z,71.22
2022-10-29T11:55:02.455Z,71.19
2022-10-29T12:00:02.273Z,71.14
2022-10-29T12:05:02.145Z,71.13
2022-10-29T12:10:12.078Z,71.08
2022-10-29T12:15:01.837Z,71.06
2022-10-29T12:20:02.663Z,71.03
2022-10-29T12:25:02.421Z,70.96
2022-10-29T12:30:02.167Z,70.95
2022-10-29T12:35:02.034Z,70.92
2022-10-29T12:40:01.838Z,70.91
2022-10-29T12:45:02.673Z,70.88
2022-10-29T12:50:12.489Z,70.87
2022-10-29T12:55:02.228Z,70.82
2022-10-29T13:00:02.050Z,70.81
2022-10-29T13:05:01.809Z,70.76
2022-10-29T13:10:02.668Z,70.79
2022-10-29T13:15:02.474Z,70.73
2022-10-29T13:20:02.310Z,70.73
2022-10-29T13:25:02.128Z,70.72
2022-10-29T13:30:01.890Z,70.7
2022-10-29T13:35:02.740Z,70.72
2022-10-29T13:40:02.615Z,70.72
2022-10-29T13:45:02.453Z,70.75
2022-10-29T13:50:02.292Z,70.73
2022-10-29T13:55:02.232Z,70.76
2022-10-29T14:00:02.142Z,70.77
2022-10-29T14:05:02.085Z,70.78
2022-10-29T14:10:02.010Z,70.75
2022-10-29T14:15:08.881Z,70.77
2022-10-29T14:20:02.684Z,70.75
2022-10-29T14:25:17.138Z,70.76
2022-10-29T14:30:01.755Z,70.74
2022-10-29T14:35:02.485Z,70.73
2022-10-29T14:40:02.315Z,70.74
2022-10-29T14:45:02.138Z,70.72
2022-10-29T14:50:02.024Z,70.74
2022-10-29T14:55:01.804Z,70.75
2022-10-29T15:00:02.554Z,70.79
2022-10-29T15:05:07.313Z,70.79
2022-10-29T15:10:12.407Z,70.84
2022-10-29T15:15:02.129Z,70.85
2022-10-29T15:20:02.008Z,70.87
2022-10-29T15:25:01.787Z,70.9
2022-10-29T15:30:02.592Z,70.92
2022-10-29T15:35:02.828Z,70.97
2022-10-29T15:40:02.706Z,70.99
2022-10-29T15:45:02.688Z,71.01
2022-10-29T15:50:02.494Z,71.05
2022-10-29T15:55:02.355Z,71.08
2022-10-29T16:05:01.972Z,71.17
2022-10-29T16:10:01.840Z,71.18
2022-10-29T16:15:02.678Z,71.25
2022-10-29T16:20:02.473Z,71.28
2022-10-29T16:25:02.451Z,71.32
2022-10-29T16:30:02.374Z,71.35
2022-10-29T16:35:02.355Z,71.38
2022-10-29T16:40:02.338Z,71.42
2022-10-29T16:45:02.272Z,71.45
2022-10-29T16:50:02.438Z,71.48
2022-10-29T16:55:02.410Z,71.53
2022-10-29T17:00:02.391Z,71.57
2022-10-29T17:05:02.166Z,71.58
2022-10-29T17:10:03.168Z,71.62
2022-10-29T17:15:01.976Z,71.64
2022-10-29T17:20:01.787Z,71.69
2022-10-29T17:25:02.621Z,71.68
2022-10-29T17:30:02.464Z,71.73
2022-10-29T17:35:02.254Z,71.76
2022-10-29T17:40:06.762Z,71.76
2022-10-29T17:45:01.925Z,71.78
2022-10-29T17:50:02.671Z,71.78
2022-10-29T17:55:02.519Z,71.78
2022-10-29T18:00:02.344Z,71.79
2022-10-29T18:05:02.263Z,71.79
2022-10-29T18:10:02.103Z,71.81
2022-10-29T18:15:01.921Z,71.81
2022-10-29T18:20:02.782Z,71.81
2022-10-29T18:25:02.610Z,71.83
2022-10-29T18:30:02.493Z,71.82
2022-10-29T18:35:02.336Z,71.82
2022-10-29T18:40:02.233Z,71.81
2022-10-29T18:45:02.025Z,71.82
2022-10-29T18:50:02.129Z,71.83
2022-10-29T18:55:02.003Z,71.82
2022-10-29T19:00:01.906Z,71.84
2022-10-29T19:05:02.761Z,71.85
2022-10-29T19:10:02.686Z,71.87
2022-10-29T19:15:02.528Z,71.85
2022-10-29T19:20:02.463Z,71.87
2022-10-29T19:25:02.369Z,71.89
2022-10-29T19:30:02.374Z,71.88
2022-10-29T19:35:02.282Z,71.88
2022-10-29T19:40:02.178Z,71.92
2022-10-29T19:45:02.014Z,71.92
2022-10-29T19:50:01.830Z,71.92
2022-10-29T19:55:02.676Z,71.93
2022-10-29T20:00:02.504Z,71.93
2022-10-29T20:05:02.345Z,71.99
2022-10-29T20:10:02.189Z,71.99
2022-10-29T20:15:02.027Z,71.99
2022-10-29T20:20:01.820Z,72.01
2022-10-29T20:25:02.591Z,72.04
2022-10-29T20:30:02.419Z,72.05
2022-10-29T20:35:02.242Z,72.05
2022-10-29T20:40:02.054Z,72.08
2022-10-29T20:45:01.868Z,72.09
2022-10-29T20:50:02.624Z,72.1
2022-10-29T20:55:02.469Z,72.1
2022-10-29T21:00:02.294Z,72.12
2022-10-29T21:05:02.142Z,72.14
2022-10-29T21:10:01.972Z,72.15
2022-10-29T21:15:01.762Z,72.14
2022-10-29T21:20:02.530Z,72.15
2022-10-29T21:25:02.342Z,72.16
2022-10-29T21:30:02.087Z,72.15
2022-10-29T21:35:07.815Z,72.16
2022-10-29T21:40:08.531Z,72.18
2022-10-29T21:45:08.237Z,72.17
2022-10-29T21:50:07.942Z,72.18
2022-10-29T21:55:08.618Z,72.19
2022-10-29T22:00:08.386Z,72.2
2022-10-29T22:05:08.096Z,72.21
2022-10-29T22:10:07.797Z,72.23
2022-10-29T22:15:08.506Z,72.24
2022-10-29T22:20:08.229Z,72.25
2022-10-29T22:25:08.000Z,72.25
2022-10-29T22:30:07.720Z,72.26
2022-10-29T22:35:08.425Z,72.27
2022-10-29T22:40:08.107Z,72.28
2022-10-29T22:45:07.808Z,72.31
2022-10-29T22:50:08.498Z,72.3
2022-10-29T22:55:08.257Z,72.32
2022-10-29T23:01:02.944Z,72.33
2022-10-29T23:05:07.761Z,72.34
2022-10-29T23:10:08.198Z,72.35
2022-10-29T23:15:07.904Z,72.37
2022-10-29T23:20:09.117Z,72.38
2022-10-29T23:25:07.806Z,72.37
2022-10-29T23:30:08.500Z,72.39
2022-10-29T23:35:08.220Z,72.39
2022-10-29T23:40:07.913Z,72.42
2022-10-29T23:45:08.596Z,72.41
2022-10-29T23:50:08.285Z,72.43
2022-10-29T23:55:07.978Z,72.42
